sensor_id;sensor_type;location;lat;lon;timestamp;P1;durP1;ratioP1;P2;durP2;ratioP2
53533;SDS011;39421;53.204;6.568;2022-08-25T00:00:41;8.43;;;5.70;;
53533;SDS011;39421;53.204;6.568;2022-08-25T00:03:07;7.82;;;5.72;;
53533;SDS011;39421;53.204;6.568;2022-08-25T00:05:34;6.35;;;5.38;;
53533;SDS011;39421;53.204;6.568;2022-08-25T00:08:00;6.70;;;5.60;;
53533;SDS011;39421;53.204;6.568;2022-08-25T00:10:26;6.07;;;5.37;;
53533;SDS011;39421;53.204;6.568;2022-08-25T00:12:52;6.73;;;5.77;;
53533;SDS011;39421;53.204;6.568;2022-08-25T00:15:18;7.57;;;5.50;;
53533;SDS011;39421;53.204;6.568;2022-08-25T00:17:47;7.40;;;5.30;;
53533;SDS011;39421;53.204;6.568;2022-08-25T00:20:13;7.05;;;5.25;;
53533;SDS011;39421;53.204;6.568;2022-08-25T00:22:40;7.60;;;5.70;;
53533;SDS011;39421;53.204;6.568;2022-08-25T00:25:06;6.53;;;5.50;;
53533;SDS011;39421;53.204;6.568;2022-08-25T00:27:32;7.05;;;4.78;;
53533;SDS011;39421;53.204;6.568;2022-08-25T00:29:58;6.15;;;5.43;;
53533;SDS011;39421;53.204;6.568;2022-08-25T00:32:24;6.95;;;5.43;;
53533;SDS011;39421;53.204;6.568;2022-08-25T00:34:51;8.50;;;5.78;;
53533;SDS011;39421;53.204;6.568;2022-08-25T00:37:17;6.10;;;4.70;;
53533;SDS011;39421;53.204;6.568;2022-08-25T00:39:43;6.47;;;4.80;;
53533;SDS011;39421;53.204;6.568;2022-08-25T00:42:10;9.20;;;5.22;;
53533;SDS011;39421;53.204;6.568;2022-08-25T00:44:37;7.28;;;5.15;;
53533;SDS011;39421;53.204;6.568;2022-08-25T00:47:04;7.72;;;5.10;;
53533;SDS011;39421;53.204;6.568;2022-08-25T00:49:32;7.20;;;4.83;;
53533;SDS011;39421;53.204;6.568;2022-08-25T00:52:00;5.22;;;4.68;;
53533;SDS011;39421;53.204;6.568;2022-08-25T00:57:22;7.88;;;4.88;;
53533;SDS011;39421;53.204;6.568;2022-08-25T00:59:52;6.03;;;4.50;;
53533;SDS011;39421;53.204;6.568;2022-08-25T01:02:18;6.32;;;4.80;;
53533;SDS011;39421;53.204;6.568;2022-08-25T01:04:44;6.50;;;4.70;;
53533;SDS011;39421;53.204;6.568;2022-08-25T01:07:10;5.47;;;4.75;;
53533;SDS011;39421;53.204;6.568;2022-08-25T01:09:37;6.28;;;4.55;;
53533;SDS011;39421;53.204;6.568;2022-08-25T01:12:03;7.43;;;4.78;;
53533;SDS011;39421;53.204;6.568;2022-08-25T01:14:30;6.47;;;4.72;;
53533;SDS011;39421;53.204;6.568;2022-08-25T01:16:58;7.22;;;4.88;;
53533;SDS011;39421;53.204;6.568;2022-08-25T01:19:24;8.10;;;4.78;;
53533;SDS011;39421;53.204;6.568;2022-08-25T01:21:53;6.87;;;4.93;;
53533;SDS011;39421;53.204;6.568;2022-08-25T01:27:03;6.68;;;4.82;;
53533;SDS011;39421;53.204;6.568;2022-08-25T01:29:30;8.15;;;4.95;;
53533;SDS011;39421;53.204;6.568;2022-08-25T01:31:59;5.63;;;4.70;;
53533;SDS011;39421;53.204;6.568;2022-08-25T01:34:28;6.68;;;4.88;;
53533;SDS011;39421;53.204;6.568;2022-08-25T01:36:56;7.18;;;4.72;;
53533;SDS011;39421;53.204;6.568;2022-08-25T01:39:24;7.50;;;5.20;;
53533;SDS011;39421;53.204;6.568;2022-08-25T01:42:08;6.22;;;4.78;;
53533;SDS011;39421;53.204;6.568;2022-08-25T01:44:42;6.68;;;4.70;;
53533;SDS011;39421;53.204;6.568;2022-08-25T01:47:10;6.50;;;5.03;;
53533;SDS011;39421;53.204;6.568;2022-08-25T01:49:36;5.50;;;4.82;;
53533;SDS011;39421;53.204;6.568;2022-08-25T01:54:45;6.90;;;4.68;;
53533;SDS011;39421;53.204;6.568;2022-08-25T01:57:10;8.18;;;4.97;;
53533;SDS011;39421;53.204;6.568;2022-08-25T01:59:36;6.97;;;4.37;;
53533;SDS011;39421;53.204;6.568;2022-08-25T02:02:03;7.27;;;4.53;;
53533;SDS011;39421;53.204;6.568;2022-08-25T02:04:29;10.10;;;4.75;;
53533;SDS011;39421;53.204;6.568;2022-08-25T02:06:57;7.40;;;4.63;;
53533;SDS011;39421;53.204;6.568;2022-08-25T02:09:26;5.88;;;4.40;;
53533;SDS011;39421;53.204;6.568;2022-08-25T02:11:52;6.22;;;4.20;;
53533;SDS011;39421;53.204;6.568;2022-08-25T02:14:18;7.23;;;4.47;;
53533;SDS011;39421;53.204;6.568;2022-08-25T02:16:46;8.02;;;4.60;;
53533;SDS011;39421;53.204;6.568;2022-08-25T02:19:13;5.57;;;4.28;;
53533;SDS011;39421;53.204;6.568;2022-08-25T02:21:39;7.68;;;4.32;;
53533;SDS011;39421;53.204;6.568;2022-08-25T02:24:05;7.50;;;4.25;;
53533;SDS011;39421;53.204;6.568;2022-08-25T02:26:32;6.25;;;3.97;;
53533;SDS011;39421;53.204;6.568;2022-08-25T02:29:00;6.30;;;4.37;;
53533;SDS011;39421;53.204;6.568;2022-08-25T02:31:26;7.07;;;4.00;;
53533;SDS011;39421;53.204;6.568;2022-08-25T02:33:52;5.78;;;4.10;;
53533;SDS011;39421;53.204;6.568;2022-08-25T02:36:19;6.80;;;4.10;;
53533;SDS011;39421;53.204;6.568;2022-08-25T02:38:45;7.67;;;4.47;;
53533;SDS011;39421;53.204;6.568;2022-08-25T02:41:12;5.43;;;4.20;;
53533;SDS011;39421;53.204;6.568;2022-08-25T02:43:41;6.75;;;4.25;;
53533;SDS011;39421;53.204;6.568;2022-08-25T02:46:09;7.88;;;4.43;;
53533;SDS011;39421;53.204;6.568;2022-08-25T02:48:36;6.00;;;4.07;;
53533;SDS011;39421;53.204;6.568;2022-08-25T02:51:02;6.72;;;4.32;;
53533;SDS011;39421;53.204;6.568;2022-08-25T02:53:31;5.70;;;4.20;;
53533;SDS011;39421;53.204;6.568;2022-08-25T02:55:57;6.23;;;4.30;;
53533;SDS011;39421;53.204;6.568;2022-08-25T02:58:23;6.83;;;4.10;;
53533;SDS011;39421;53.204;6.568;2022-08-25T03:00:50;6.57;;;4.38;;
53533;SDS011;39421;53.204;6.568;2022-08-25T03:03:17;6.35;;;4.55;;
53533;SDS011;39421;53.204;6.568;2022-08-25T03:05:43;6.88;;;4.47;;
53533;SDS011;39421;53.204;6.568;2022-08-25T03:08:10;8.13;;;4.35;;
53533;SDS011;39421;53.204;6.568;2022-08-25T03:10:36;6.07;;;4.10;;
53533;SDS011;39421;53.204;6.568;2022-08-25T03:13:02;7.63;;;4.40;;
53533;SDS011;39421;53.204;6.568;2022-08-25T03:15:29;7.55;;;4.30;;
53533;SDS011;39421;53.204;6.568;2022-08-25T03:17:55;7.97;;;4.45;;
53533;SDS011;39421;53.204;6.568;2022-08-25T03:20:21;7.82;;;4.15;;
53533;SDS011;39421;53.204;6.568;2022-08-25T03:22:49;8.15;;;4.30;;
53533;SDS011;39421;53.204;6.568;2022-08-25T03:25:15;6.50;;;4.35;;
53533;SDS011;39421;53.204;6.568;2022-08-25T03:27:59;6.28;;;4.13;;
53533;SDS011;39421;53.204;6.568;2022-08-25T03:30:26;6.53;;;4.18;;
53533;SDS011;39421;53.204;6.568;2022-08-25T03:32:52;6.32;;;4.10;;
53533;SDS011;39421;53.204;6.568;2022-08-25T03:35:18;6.38;;;4.70;;
53533;SDS011;39421;53.204;6.568;2022-08-25T03:37:44;5.93;;;4.15;;
53533;SDS011;39421;53.204;6.568;2022-08-25T03:40:11;6.03;;;4.47;;
53533;SDS011;39421;53.204;6.568;2022-08-25T03:42:42;6.25;;;4.57;;
53533;SDS011;39421;53.204;6.568;2022-08-25T03:45:09;7.53;;;4.70;;
53533;SDS011;39421;53.204;6.568;2022-08-25T03:47:36;6.40;;;4.80;;
53533;SDS011;39421;53.204;6.568;2022-08-25T03:50:05;8.13;;;4.75;;
53533;SDS011;39421;53.204;6.568;2022-08-25T03:52:32;7.70;;;4.80;;
53533;SDS011;39421;53.204;6.568;2022-08-25T03:54:58;5.15;;;4.13;;
53533;SDS011;39421;53.204;6.568;2022-08-25T03:57:24;6.30;;;4.22;;
53533;SDS011;39421;53.204;6.568;2022-08-25T03:59:50;5.93;;;4.45;;
53533;SDS011;39421;53.204;6.568;2022-08-25T04:02:18;6.75;;;4.75;;
53533;SDS011;39421;53.204;6.568;2022-08-25T04:04:44;7.22;;;4.47;;
53533;SDS011;39421;53.204;6.568;2022-08-25T04:07:10;5.95;;;4.40;;
53533;SDS011;39421;53.204;6.568;2022-08-25T04:09:35;7.77;;;4.60;;
53533;SDS011;39421;53.204;6.568;2022-08-25T04:12:01;6.05;;;4.57;;
53533;SDS011;39421;53.204;6.568;2022-08-25T04:14:27;7.30;;;4.68;;
53533;SDS011;39421;53.204;6.568;2022-08-25T04:16:53;6.93;;;4.40;;
53533;SDS011;39421;53.204;6.568;2022-08-25T04:19:19;5.77;;;4.30;;
53533;SDS011;39421;53.204;6.568;2022-08-25T04:21:44;7.53;;;4.47;;
53533;SDS011;39421;53.204;6.568;2022-08-25T04:24:11;6.47;;;4.50;;
53533;SDS011;39421;53.204;6.568;2022-08-25T04:26:41;6.25;;;4.50;;
53533;SDS011;39421;53.204;6.568;2022-08-25T04:29:11;7.72;;;4.35;;
53533;SDS011;39421;53.204;6.568;2022-08-25T04:31:39;8.13;;;4.70;;
53533;SDS011;39421;53.204;6.568;2022-08-25T04:34:07;6.40;;;4.43;;
53533;SDS011;39421;53.204;6.568;2022-08-25T04:36:34;9.32;;;5.70;;
53533;SDS011;39421;53.204;6.568;2022-08-25T04:39:00;9.52;;;5.82;;
53533;SDS011;39421;53.204;6.568;2022-08-25T04:41:26;10.80;;;6.05;;
53533;SDS011;39421;53.204;6.568;2022-08-25T04:43:55;13.68;;;7.20;;
53533;SDS011;39421;53.204;6.568;2022-08-25T04:46:23;10.52;;;7.18;;
53533;SDS011;39421;53.204;6.568;2022-08-25T04:48:51;11.70;;;7.38;;
53533;SDS011;39421;53.204;6.568;2022-08-25T04:51:20;8.98;;;6.32;;
53533;SDS011;39421;53.204;6.568;2022-08-25T04:53:47;10.40;;;7.63;;
53533;SDS011;39421;53.204;6.568;2022-08-25T04:56:15;12.00;;;7.13;;
53533;SDS011;39421;53.204;6.568;2022-08-25T04:58:42;11.77;;;7.43;;
53533;SDS011;39421;53.204;6.568;2022-08-25T05:01:09;14.65;;;7.47;;
53533;SDS011;39421;53.204;6.568;2022-08-25T05:03:37;10.37;;;6.97;;
53533;SDS011;39421;53.204;6.568;2022-08-25T05:06:03;10.77;;;6.70;;
53533;SDS011;39421;53.204;6.568;2022-08-25T05:08:30;9.95;;;5.95;;
53533;SDS011;39421;53.204;6.568;2022-08-25T05:10:56;9.65;;;6.65;;
53533;SDS011;39421;53.204;6.568;2022-08-25T05:13:23;9.60;;;6.67;;
53533;SDS011;39421;53.204;6.568;2022-08-25T05:15:56;9.55;;;7.07;;
53533;SDS011;39421;53.204;6.568;2022-08-25T05:18:24;9.67;;;7.27;;
53533;SDS011;39421;53.204;6.568;2022-08-25T05:20:51;11.50;;;6.73;;
53533;SDS011;39421;53.204;6.568;2022-08-25T05:23:18;12.70;;;7.65;;
53533;SDS011;39421;53.204;6.568;2022-08-25T05:25:45;13.15;;;7.03;;
53533;SDS011;39421;53.204;6.568;2022-08-25T05:28:11;12.35;;;6.93;;
53533;SDS011;39421;53.204;6.568;2022-08-25T05:30:40;11.05;;;7.13;;
53533;SDS011;39421;53.204;6.568;2022-08-25T05:33:07;12.02;;;7.28;;
53533;SDS011;39421;53.204;6.568;2022-08-25T05:35:33;11.27;;;6.95;;
53533;SDS011;39421;53.204;6.568;2022-08-25T05:38:00;10.47;;;7.37;;
53533;SDS011;39421;53.204;6.568;2022-08-25T05:40:26;10.52;;;7.30;;
53533;SDS011;39421;53.204;6.568;2022-08-25T05:42:52;9.63;;;7.13;;
53533;SDS011;39421;53.204;6.568;2022-08-25T05:45:18;11.30;;;7.57;;
53533;SDS011;39421;53.204;6.568;2022-08-25T05:47:44;11.20;;;7.57;;
53533;SDS011;39421;53.204;6.568;2022-08-25T05:50:10;11.52;;;7.50;;
53533;SDS011;39421;53.204;6.568;2022-08-25T05:52:36;10.10;;;6.95;;
53533;SDS011;39421;53.204;6.568;2022-08-25T05:55:01;11.87;;;7.60;;
53533;SDS011;39421;53.204;6.568;2022-08-25T05:57:28;11.98;;;7.45;;
53533;SDS011;39421;53.204;6.568;2022-08-25T05:59:53;11.20;;;7.40;;
53533;SDS011;39421;53.204;6.568;2022-08-25T06:02:19;11.57;;;7.83;;
53533;SDS011;39421;53.204;6.568;2022-08-25T06:05:03;11.30;;;7.25;;
53533;SDS011;39421;53.204;6.568;2022-08-25T06:07:29;10.70;;;7.35;;
53533;SDS011;39421;53.204;6.568;2022-08-25T06:09:55;11.13;;;7.50;;
53533;SDS011;39421;53.204;6.568;2022-08-25T06:12:21;10.50;;;7.20;;
53533;SDS011;39421;53.204;6.568;2022-08-25T06:14:47;10.80;;;7.05;;
53533;SDS011;39421;53.204;6.568;2022-08-25T06:17:15;10.25;;;6.88;;
53533;SDS011;39421;53.204;6.568;2022-08-25T06:19:41;10.70;;;7.40;;
53533;SDS011;39421;53.204;6.568;2022-08-25T06:22:07;10.90;;;8.02;;
53533;SDS011;39421;53.204;6.568;2022-08-25T06:24:33;12.83;;;7.17;;
53533;SDS011;39421;53.204;6.568;2022-08-25T06:26:59;14.85;;;7.95;;
53533;SDS011;39421;53.204;6.568;2022-08-25T06:29:25;10.82;;;7.40;;
53533;SDS011;39421;53.204;6.568;2022-08-25T06:31:50;11.45;;;7.60;;
53533;SDS011;39421;53.204;6.568;2022-08-25T06:34:16;9.47;;;7.10;;
53533;SDS011;39421;53.204;6.568;2022-08-25T06:36:42;10.70;;;7.17;;
53533;SDS011;39421;53.204;6.568;2022-08-25T06:39:08;9.40;;;6.70;;
53533;SDS011;39421;53.204;6.568;2022-08-25T06:41:34;9.57;;;6.78;;
53533;SDS011;39421;53.204;6.568;2022-08-25T06:44:00;12.45;;;6.80;;
53533;SDS011;39421;53.204;6.568;2022-08-25T06:46:26;11.38;;;6.40;;
53533;SDS011;39421;53.204;6.568;2022-08-25T06:48:53;10.47;;;6.27;;
53533;SDS011;39421;53.204;6.568;2022-08-25T06:51:20;9.53;;;6.43;;
53533;SDS011;39421;53.204;6.568;2022-08-25T06:53:47;9.63;;;6.45;;
53533;SDS011;39421;53.204;6.568;2022-08-25T06:56:17;9.57;;;6.00;;
53533;SDS011;39421;53.204;6.568;2022-08-25T06:58:45;11.90;;;6.70;;
53533;SDS011;39421;53.204;6.568;2022-08-25T07:01:12;9.27;;;6.00;;
53533;SDS011;39421;53.204;6.568;2022-08-25T07:03:40;9.35;;;5.75;;
53533;SDS011;39421;53.204;6.568;2022-08-25T07:06:07;8.70;;;5.50;;
53533;SDS011;39421;53.204;6.568;2022-08-25T07:08:33;10.18;;;5.97;;
53533;SDS011;39421;53.204;6.568;2022-08-25T07:11:06;11.25;;;5.63;;
53533;SDS011;39421;53.204;6.568;2022-08-25T07:13:34;7.70;;;5.78;;
53533;SDS011;39421;53.204;6.568;2022-08-25T07:16:00;8.52;;;6.15;;
53533;SDS011;39421;53.204;6.568;2022-08-25T07:18:26;9.18;;;6.07;;
53533;SDS011;39421;53.204;6.568;2022-08-25T07:20:52;7.88;;;5.60;;
53533;SDS011;39421;53.204;6.568;2022-08-25T07:23:18;6.37;;;4.93;;
53533;SDS011;39421;53.204;6.568;2022-08-25T07:25:45;10.70;;;6.60;;
53533;SDS011;39421;53.204;6.568;2022-08-25T07:28:11;9.27;;;5.97;;
53533;SDS011;39421;53.204;6.568;2022-08-25T07:30:37;14.93;;;6.88;;
53533;SDS011;39421;53.204;6.568;2022-08-25T07:33:03;8.57;;;6.25;;
53533;SDS011;39421;53.204;6.568;2022-08-25T07:35:29;8.60;;;5.78;;
53533;SDS011;39421;53.204;6.568;2022-08-25T07:37:57;10.95;;;6.45;;
53533;SDS011;39421;53.204;6.568;2022-08-25T07:40:24;8.88;;;5.88;;
53533;SDS011;39421;53.204;6.568;2022-08-25T07:42:52;8.75;;;5.97;;
53533;SDS011;39421;53.204;6.568;2022-08-25T07:45:21;8.70;;;5.97;;
53533;SDS011;39421;53.204;6.568;2022-08-25T07:47:57;8.50;;;5.63;;
53533;SDS011;39421;53.204;6.568;2022-08-25T07:50:25;8.52;;;5.57;;
53533;SDS011;39421;53.204;6.568;2022-08-25T07:52:51;8.95;;;5.68;;
53533;SDS011;39421;53.204;6.568;2022-08-25T07:55:17;7.80;;;5.38;;
53533;SDS011;39421;53.204;6.568;2022-08-25T07:57:43;7.57;;;5.57;;
53533;SDS011;39421;53.204;6.568;2022-08-25T08:00:09;7.95;;;5.30;;
53533;SDS011;39421;53.204;6.568;2022-08-25T08:02:38;6.85;;;4.90;;
53533;SDS011;39421;53.204;6.568;2022-08-25T08:05:04;8.90;;;6.00;;
53533;SDS011;39421;53.204;6.568;2022-08-25T08:07:31;8.27;;;4.95;;
53533;SDS011;39421;53.204;6.568;2022-08-25T08:09:56;8.55;;;4.88;;
53533;SDS011;39421;53.204;6.568;2022-08-25T08:12:23;7.97;;;4.68;;
53533;SDS011;39421;53.204;6.568;2022-08-25T08:14:49;7.90;;;4.90;;
53533;SDS011;39421;53.204;6.568;2022-08-25T08:17:16;6.32;;;4.70;;
53533;SDS011;39421;53.204;6.568;2022-08-25T08:19:42;6.18;;;4.40;;
53533;SDS011;39421;53.204;6.568;2022-08-25T08:22:08;8.13;;;5.07;;
53533;SDS011;39421;53.204;6.568;2022-08-25T08:24:36;6.25;;;4.15;;
53533;SDS011;39421;53.204;6.568;2022-08-25T08:27:04;7.13;;;4.35;;
53533;SDS011;39421;53.204;6.568;2022-08-25T08:29:31;6.55;;;4.30;;
53533;SDS011;39421;53.204;6.568;2022-08-25T08:31:57;6.43;;;4.30;;
53533;SDS011;39421;53.204;6.568;2022-08-25T08:34:23;7.40;;;4.40;;
53533;SDS011;39421;53.204;6.568;2022-08-25T08:36:50;6.40;;;4.70;;
53533;SDS011;39421;53.204;6.568;2022-08-25T08:39:15;7.70;;;4.63;;
53533;SDS011;39421;53.204;6.568;2022-08-25T08:41:48;6.03;;;4.23;;
53533;SDS011;39421;53.204;6.568;2022-08-25T08:44:43;6.80;;;4.35;;
53533;SDS011;39421;53.204;6.568;2022-08-25T08:47:11;5.10;;;4.27;;
53533;SDS011;39421;53.204;6.568;2022-08-25T08:52:35;6.23;;;4.43;;
53533;SDS011;39421;53.204;6.568;2022-08-25T08:57:54;5.60;;;3.80;;
53533;SDS011;39421;53.204;6.568;2022-08-25T09:00:23;6.90;;;4.30;;
53533;SDS011;39421;53.204;6.568;2022-08-25T09:02:51;6.73;;;4.07;;
53533;SDS011;39421;53.204;6.568;2022-08-25T09:05:42;6.68;;;4.00;;
53533;SDS011;39421;53.204;6.568;2022-08-25T09:08:12;8.32;;;4.38;;
53533;SDS011;39421;53.204;6.568;2022-08-25T09:30:13;5.73;;;3.77;;
53533;SDS011;39421;53.204;6.568;2022-08-25T09:32:42;5.55;;;3.65;;
53533;SDS011;39421;53.204;6.568;2022-08-25T09:35:16;6.47;;;3.72;;
53533;SDS011;39421;53.204;6.568;2022-08-25T09:38:09;6.78;;;4.00;;
53533;SDS011;39421;53.204;6.568;2022-08-25T09:40:48;5.32;;;3.22;;
53533;SDS011;39421;53.204;6.568;2022-08-25T09:43:19;5.23;;;3.43;;
53533;SDS011;39421;53.204;6.568;2022-08-25T09:48:28;4.90;;;3.60;;
53533;SDS011;39421;53.204;6.568;2022-08-25T09:51:11;4.15;;;3.30;;
53533;SDS011;39421;53.204;6.568;2022-08-25T09:54:14;7.22;;;3.60;;
53533;SDS011;39421;53.204;6.568;2022-08-25T09:56:49;4.90;;;3.05;;
53533;SDS011;39421;53.204;6.568;2022-08-25T09:59:37;4.95;;;3.38;;
53533;SDS011;39421;53.204;6.568;2022-08-25T10:02:26;4.90;;;3.10;;
53533;SDS011;39421;53.204;6.568;2022-08-25T10:04:53;5.88;;;3.03;;
53533;SDS011;39421;53.204;6.568;2022-08-25T10:07:25;8.03;;;3.47;;
53533;SDS011;39421;53.204;6.568;2022-08-25T10:09:57;4.40;;;3.03;;
53533;SDS011;39421;53.204;6.568;2022-08-25T10:15:20;4.50;;;3.25;;
53533;SDS011;39421;53.204;6.568;2022-08-25T10:17:52;5.38;;;3.22;;
53533;SDS011;39421;53.204;6.568;2022-08-25T10:20:21;5.07;;;3.20;;
53533;SDS011;39421;53.204;6.568;2022-08-25T10:22:48;5.55;;;3.05;;
53533;SDS011;39421;53.204;6.568;2022-08-25T10:25:16;4.50;;;3.10;;
53533;SDS011;39421;53.204;6.568;2022-08-25T10:30:50;4.75;;;3.20;;
53533;SDS011;39421;53.204;6.568;2022-08-25T10:33:39;5.93;;;3.10;;
53533;SDS011;39421;53.204;6.568;2022-08-25T10:36:19;4.22;;;3.10;;
53533;SDS011;39421;53.204;6.568;2022-08-25T10:38:56;4.90;;;3.17;;
53533;SDS011;39421;53.204;6.568;2022-08-25T10:41:36;4.30;;;3.10;;
53533;SDS011;39421;53.204;6.568;2022-08-25T10:53:04;4.67;;;3.20;;
53533;SDS011;39421;53.204;6.568;2022-08-25T10:58:14;4.87;;;3.20;;
53533;SDS011;39421;53.204;6.568;2022-08-25T11:00:54;5.88;;;3.17;;
53533;SDS011;39421;53.204;6.568;2022-08-25T11:06:04;4.17;;;3.30;;
53533;SDS011;39421;53.204;6.568;2022-08-25T11:08:37;5.80;;;3.30;;
53533;SDS011;39421;53.204;6.568;2022-08-25T11:11:32;4.13;;;3.05;;
53533;SDS011;39421;53.204;6.568;2022-08-25T11:19:35;4.40;;;3.40;;
53533;SDS011;39421;53.204;6.568;2022-08-25T11:22:06;5.78;;;3.10;;
53533;SDS011;39421;53.204;6.568;2022-08-25T11:27:02;5.00;;;3.17;;
53533;SDS011;39421;53.204;6.568;2022-08-25T11:29:30;6.10;;;3.33;;
53533;SDS011;39421;53.204;6.568;2022-08-25T11:32:01;4.47;;;3.00;;
53533;SDS011;39421;53.204;6.568;2022-08-25T11:34:31;4.85;;;3.10;;
53533;SDS011;39421;53.204;6.568;2022-08-25T11:37:02;6.50;;;3.42;;
53533;SDS011;39421;53.204;6.568;2022-08-25T11:44:57;5.75;;;3.25;;
53533;SDS011;39421;53.204;6.568;2022-08-25T11:50:32;4.30;;;3.00;;
53533;SDS011;39421;53.204;6.568;2022-08-25T11:53:15;5.45;;;3.00;;
53533;SDS011;39421;53.204;6.568;2022-08-25T11:55:51;5.20;;;3.03;;
53533;SDS011;39421;53.204;6.568;2022-08-25T12:01:10;4.60;;;3.10;;
53533;SDS011;39421;53.204;6.568;2022-08-25T12:04:10;5.47;;;2.95;;
53533;SDS011;39421;53.204;6.568;2022-08-25T12:10:12;4.40;;;2.97;;
53533;SDS011;39421;53.204;6.568;2022-08-25T12:12:37;6.80;;;3.05;;
53533;SDS011;39421;53.204;6.568;2022-08-25T12:15:26;3.50;;;2.70;;
53533;SDS011;39421;53.204;6.568;2022-08-25T12:23:28;5.57;;;3.00;;
53533;SDS011;39421;53.204;6.568;2022-08-25T12:28:49;4.32;;;2.55;;
53533;SDS011;39421;53.204;6.568;2022-08-25T12:31:43;4.25;;;2.72;;
53533;SDS011;39421;53.204;6.568;2022-08-25T12:37:23;5.18;;;2.83;;
53533;SDS011;39421;53.204;6.568;2022-08-25T12:45:10;5.43;;;2.80;;
53533;SDS011;39421;53.204;6.568;2022-08-25T12:47:38;4.55;;;3.03;;
53533;SDS011;39421;53.204;6.568;2022-08-25T12:52:54;4.50;;;3.00;;
53533;SDS011;39421;53.204;6.568;2022-08-25T12:55:23;3.83;;;2.72;;
53533;SDS011;39421;53.204;6.568;2022-08-25T12:57:51;5.43;;;3.08;;
53533;SDS011;39421;53.204;6.568;2022-08-25T13:00:24;5.35;;;3.00;;
53533;SDS011;39421;53.204;6.568;2022-08-25T13:03:07;3.95;;;2.95;;
53533;SDS011;39421;53.204;6.568;2022-08-25T13:14:37;5.30;;;2.78;;
53533;SDS011;39421;53.204;6.568;2022-08-25T13:17:05;4.13;;;2.60;;
53533;SDS011;39421;53.204;6.568;2022-08-25T13:19:32;7.07;;;3.20;;
53533;SDS011;39421;53.204;6.568;2022-08-25T13:21:59;9.03;;;2.93;;
53533;SDS011;39421;53.204;6.568;2022-08-25T13:24:28;4.60;;;2.50;;
53533;SDS011;39421;53.204;6.568;2022-08-25T13:26:55;2.65;;;2.17;;
53533;SDS011;39421;53.204;6.568;2022-08-25T13:29:25;6.47;;;2.70;;
53533;SDS011;39421;53.204;6.568;2022-08-25T13:32:00;3.20;;;2.40;;
53533;SDS011;39421;53.204;6.568;2022-08-25T13:34:30;4.43;;;2.95;;
53533;SDS011;39421;53.204;6.568;2022-08-25T13:37:08;8.00;;;3.38;;
53533;SDS011;39421;53.204;6.568;2022-08-25T13:42:49;4.53;;;2.97;;
53533;SDS011;39421;53.204;6.568;2022-08-25T13:45:21;5.15;;;2.80;;
53533;SDS011;39421;53.204;6.568;2022-08-25T13:47:49;3.78;;;2.58;;
53533;SDS011;39421;53.204;6.568;2022-08-25T13:53:00;4.93;;;3.10;;
53533;SDS011;39421;53.204;6.568;2022-08-25T13:55:33;5.20;;;2.80;;
53533;SDS011;39421;53.204;6.568;2022-08-25T13:58:00;4.30;;;2.90;;
53533;SDS011;39421;53.204;6.568;2022-08-25T14:00:38;5.20;;;2.90;;
53533;SDS011;39421;53.204;6.568;2022-08-25T14:03:26;3.53;;;2.47;;
53533;SDS011;39421;53.204;6.568;2022-08-25T14:06:05;4.90;;;2.75;;
53533;SDS011;39421;53.204;6.568;2022-08-25T14:11:27;4.47;;;2.80;;
53533;SDS011;39421;53.204;6.568;2022-08-25T14:16:49;5.85;;;2.70;;
53533;SDS011;39421;53.204;6.568;2022-08-25T14:19:19;3.45;;;2.75;;
53533;SDS011;39421;53.204;6.568;2022-08-25T14:21:47;4.60;;;2.73;;
53533;SDS011;39421;53.204;6.568;2022-08-25T14:24:18;3.90;;;2.80;;
53533;SDS011;39421;53.204;6.568;2022-08-25T14:26:47;3.13;;;2.83;;
53533;SDS011;39421;53.204;6.568;2022-08-25T14:29:13;4.63;;;2.90;;
53533;SDS011;39421;53.204;6.568;2022-08-25T14:31:40;4.57;;;2.80;;
53533;SDS011;39421;53.204;6.568;2022-08-25T14:34:11;3.67;;;2.85;;
53533;SDS011;39421;53.204;6.568;2022-08-25T14:36:40;3.88;;;3.00;;
53533;SDS011;39421;53.204;6.568;2022-08-25T14:39:06;3.40;;;2.83;;
53533;SDS011;39421;53.204;6.568;2022-08-25T14:41:33;3.97;;;2.92;;
53533;SDS011;39421;53.204;6.568;2022-08-25T14:44:01;3.92;;;3.03;;
53533;SDS011;39421;53.204;6.568;2022-08-25T14:46:28;4.10;;;3.10;;
53533;SDS011;39421;53.204;6.568;2022-08-25T14:48:59;3.97;;;3.15;;
53533;SDS011;39421;53.204;6.568;2022-08-25T14:51:28;4.82;;;3.38;;
53533;SDS011;39421;53.204;6.568;2022-08-25T14:53:58;6.63;;;3.40;;
53533;SDS011;39421;53.204;6.568;2022-08-25T14:56:26;4.03;;;3.00;;
53533;SDS011;39421;53.204;6.568;2022-08-25T14:58:52;4.97;;;3.22;;
53533;SDS011;39421;53.204;6.568;2022-08-25T15:01:19;4.07;;;3.23;;
53533;SDS011;39421;53.204;6.568;2022-08-25T15:03:46;5.68;;;3.33;;
53533;SDS011;39421;53.204;6.568;2022-08-25T15:06:15;4.80;;;3.20;;
53533;SDS011;39421;53.204;6.568;2022-08-25T15:08:42;4.47;;;3.22;;
53533;SDS011;39421;53.204;6.568;2022-08-25T15:11:26;4.07;;;3.10;;
53533;SDS011;39421;53.204;6.568;2022-08-25T15:13:52;4.78;;;3.35;;
53533;SDS011;39421;53.204;6.568;2022-08-25T15:16:29;3.97;;;3.20;;
53533;SDS011;39421;53.204;6.568;2022-08-25T15:18:58;6.43;;;3.28;;
53533;SDS011;39421;53.204;6.568;2022-08-25T15:21:24;4.60;;;3.10;;
53533;SDS011;39421;53.204;6.568;2022-08-25T15:23:50;3.83;;;3.00;;
53533;SDS011;39421;53.204;6.568;2022-08-25T15:26:16;4.68;;;3.17;;
53533;SDS011;39421;53.204;6.568;2022-08-25T15:28:46;4.72;;;2.92;;
53533;SDS011;39421;53.204;6.568;2022-08-25T15:31:14;4.05;;;3.17;;
53533;SDS011;39421;53.204;6.568;2022-08-25T15:33:41;4.57;;;3.40;;
53533;SDS011;39421;53.204;6.568;2022-08-25T15:36:10;3.97;;;3.00;;
53533;SDS011;39421;53.204;6.568;2022-08-25T15:38:38;4.22;;;3.22;;
53533;SDS011;39421;53.204;6.568;2022-08-25T15:41:05;4.57;;;2.97;;
53533;SDS011;39421;53.204;6.568;2022-08-25T15:43:32;4.65;;;3.20;;
53533;SDS011;39421;53.204;6.568;2022-08-25T15:45:58;4.32;;;3.15;;
53533;SDS011;39421;53.204;6.568;2022-08-25T15:48:24;4.38;;;3.10;;
53533;SDS011;39421;53.204;6.568;2022-08-25T15:50:53;4.47;;;3.15;;
53533;SDS011;39421;53.204;6.568;2022-08-25T15:53:21;4.83;;;3.40;;
53533;SDS011;39421;53.204;6.568;2022-08-25T15:55:49;3.97;;;3.50;;
53533;SDS011;39421;53.204;6.568;2022-08-25T15:58:15;5.38;;;3.10;;
53533;SDS011;39421;53.204;6.568;2022-08-25T16:00:42;3.90;;;3.20;;
53533;SDS011;39421;53.204;6.568;2022-08-25T16:03:08;5.07;;;3.20;;
53533;SDS011;39421;53.204;6.568;2022-08-25T16:05:35;6.85;;;3.47;;
53533;SDS011;39421;53.204;6.568;2022-08-25T16:08:01;5.15;;;3.25;;
53533;SDS011;39421;53.204;6.568;2022-08-25T16:10:27;6.38;;;3.40;;
53533;SDS011;39421;53.204;6.568;2022-08-25T16:12:57;4.32;;;3.30;;
53533;SDS011;39421;53.204;6.568;2022-08-25T16:15:23;4.30;;;3.20;;
53533;SDS011;39421;53.204;6.568;2022-08-25T16:17:49;4.30;;;3.30;;
53533;SDS011;39421;53.204;6.568;2022-08-25T16:20:15;3.67;;;3.20;;
53533;SDS011;39421;53.204;6.568;2022-08-25T16:22:41;4.05;;;2.97;;
53533;SDS011;39421;53.204;6.568;2022-08-25T16:25:09;4.55;;;3.35;;
53533;SDS011;39421;53.204;6.568;2022-08-25T16:27:35;3.53;;;3.20;;
53533;SDS011;39421;53.204;6.568;2022-08-25T16:30:01;4.72;;;3.20;;
53533;SDS011;39421;53.204;6.568;2022-08-25T16:32:26;3.80;;;3.20;;
53533;SDS011;39421;53.204;6.568;2022-08-25T16:34:52;4.28;;;3.00;;
53533;SDS011;39421;53.204;6.568;2022-08-25T16:37:18;4.67;;;3.47;;
53533;SDS011;39421;53.204;6.568;2022-08-25T16:39:44;5.50;;;3.40;;
53533;SDS011;39421;53.204;6.568;2022-08-25T16:42:10;4.53;;;3.30;;
53533;SDS011;39421;53.204;6.568;2022-08-25T16:44:36;3.28;;;2.97;;
53533;SDS011;39421;53.204;6.568;2022-08-25T16:47:03;4.63;;;3.30;;
53533;SDS011;39421;53.204;6.568;2022-08-25T16:49:29;4.30;;;3.08;;
53533;SDS011;39421;53.204;6.568;2022-08-25T16:51:55;4.10;;;3.10;;
53533;SDS011;39421;53.204;6.568;2022-08-25T16:54:21;5.07;;;3.10;;